createdAt,value
2022-10-06T00:02:23.231Z,0.70
2022-10-06T00:05:46.137Z,0.75
2022-10-06T00:09:04.101Z,0.70
2022-10-06T00:12:27.135Z,0.90
2022-10-06T00:15:51.170Z,1.00
2022-10-06T00:19:08.056Z,1.42
2022-10-06T00:22:25.152Z,1.20
2022-10-06T00:25:48.139Z,0.70
2022-10-06T00:29:12.174Z,0.30
2022-10-06T00:32:36.126Z,0.77
2022-10-06T00:36:00.148Z,0.60
2022-10-06T00:39:24.177Z,0.50
2022-10-06T00:42:48.211Z,0.90
2022-10-06T00:46:12.237Z,0.40
2022-10-06T00:49:48.148Z,0.52
2022-10-06T00:53:13.284Z,0.50
2022-10-06T00:56:37.171Z,0.35
2022-10-06T01:00:01.171Z,0.30
2022-10-06T01:03:31.157Z,0.40
2022-10-06T01:07:01.212Z,0.40
2022-10-06T01:10:27.211Z,0.50
2022-10-06T01:13:51.181Z,0.80
2022-10-06T01:17:18.161Z,0.47
2022-10-06T01:20:42.190Z,0.60
2022-10-06T01:24:06.127Z,0.60
2022-10-06T01:27:31.178Z,0.52
2022-10-06T01:31:01.254Z,0.60
2022-10-06T01:34:26.237Z,0.68
2022-10-06T01:37:50.154Z,0.50
2022-10-06T01:41:14.188Z,0.60
2022-10-06T01:44:39.195Z,0.40
2022-10-06T01:48:03.149Z,0.50
2022-10-06T01:51:30.199Z,0.40
2022-10-06T01:54:54.143Z,0.40
2022-10-06T01:58:18.269Z,0.40
2022-10-06T02:01:44.251Z,0.30
2022-10-06T02:05:08.152Z,0.50
2022-10-06T02:08:36.255Z,0.40
2022-10-06T02:12:00.296Z,0.40
2022-10-06T02:15:29.176Z,0.50
2022-10-06T02:18:53.202Z,0.40
2022-10-06T02:22:17.242Z,0.90
2022-10-06T02:25:41.251Z,0.90
2022-10-06T02:29:06.197Z,1.50
2022-10-06T02:32:31.267Z,1.38
2022-10-06T02:35:55.275Z,0.80
2022-10-06T02:39:19.203Z,0.60
2022-10-06T02:42:43.210Z,0.80
2022-10-06T02:46:19.258Z,0.73
2022-10-06T02:49:43.234Z,0.90
2022-10-06T02:53:08.226Z,0.80
2022-10-06T02:56:34.183Z,0.63
2022-10-06T02:59:58.216Z,0.80
2022-10-06T03:03:23.188Z,0.70
2022-10-06T03:06:47.289Z,0.60
2022-10-06T03:10:17.273Z,0.73
2022-10-06T03:13:41.258Z,0.60
2022-10-06T03:17:05.199Z,0.50
2022-10-06T03:20:36.194Z,0.57
2022-10-06T03:24:04.160Z,0.50
2022-10-06T03:27:29.225Z,0.60
2022-10-06T03:30:56.339Z,0.60
2022-10-06T03:34:23.197Z,0.50
2022-10-06T03:37:49.186Z,0.50
2022-10-06T03:41:30.254Z,0.90
2022-10-06T03:48:19.231Z,0.73
2022-10-06T03:51:49.155Z,1.30
2022-10-06T03:55:18.235Z,0.90
2022-10-06T03:58:43.220Z,1.05
2022-10-06T04:02:08.272Z,1.10
2022-10-06T04:05:34.182Z,0.68
2022-10-06T04:08:58.255Z,0.95
2022-10-06T04:12:23.186Z,0.77
2022-10-06T04:15:47.274Z,0.80
2022-10-06T04:19:13.251Z,1.00
2022-10-06T04:22:36.805Z,0.70
2022-10-06T04:25:56.069Z,0.60
2022-10-06T04:29:20.332Z,0.80
2022-10-06T04:32:47.227Z,0.90
2022-10-06T04:36:13.243Z,0.70
2022-10-06T04:39:37.219Z,0.80
2022-10-06T04:43:01.234Z,0.93
2022-10-06T04:46:42.174Z,0.63
2022-10-06T04:50:10.193Z,0.60
2022-10-06T04:53:54.177Z,0.70
2022-10-06T04:57:19.233Z,0.70
2022-10-06T05:00:44.222Z,0.60
2022-10-06T05:04:11.273Z,0.70
2022-10-06T05:07:35.228Z,0.70
2022-10-06T05:10:58.210Z,0.70
2022-10-06T05:14:22.218Z,0.60
2022-10-06T05:17:47.229Z,0.52
2022-10-06T05:21:22.260Z,0.70
2022-10-06T05:24:48.214Z,0.60
2022-10-06T05:28:13.281Z,0.63
2022-10-06T05:31:40.398Z,0.68
2022-10-06T05:35:05.242Z,0.80
2022-10-06T05:38:30.818Z,0.50
2022-10-06T05:41:55.234Z,0.70
2022-10-06T05:45:19.273Z,0.80
2022-10-06T05:48:45.182Z,1.08
2022-10-06T05:52:12.271Z,2.15
2022-10-06T05:55:37.270Z,1.15
2022-10-06T05:59:06.239Z,1.10
2022-10-06T06:02:30.299Z,1.20
2022-10-06T06:05:58.200Z,1.98
2022-10-06T06:09:28.231Z,2.53
2022-10-06T06:12:56.243Z,2.72
2022-10-06T06:16:30.311Z,3.70
2022-10-06T06:19:48.836Z,5.28
2022-10-06T06:23:06.299Z,3.17
2022-10-06T06:26:32.269Z,2.70
2022-10-06T06:29:56.250Z,1.75
2022-10-06T06:33:21.225Z,1.80
2022-10-06T06:36:55.224Z,2.40
2022-10-06T06:40:20.233Z,2.83
2022-10-06T06:43:44.211Z,2.30
2022-10-06T06:47:20.915Z,2.53
2022-10-06T06:50:49.251Z,1.00
2022-10-06T06:54:14.252Z,1.60
2022-10-06T06:57:43.308Z,1.02
2022-10-06T07:01:08.351Z,1.48
2022-10-06T07:04:34.294Z,1.77
2022-10-06T07:08:00.232Z,1.83
2022-10-06T07:11:48.265Z,1.55
2022-10-06T07:15:36.240Z,1.90
2022-10-06T07:19:23.820Z,2.55
2022-10-06T07:23:00.711Z,3.10
2022-10-06T07:26:18.265Z,3.30
2022-10-06T07:29:43.229Z,1.52
2022-10-06T07:33:07.318Z,1.98
2022-10-06T07:36:32.258Z,3.40
2022-10-06T07:39:57.219Z,2.30
2022-10-06T07:43:21.281Z,3.90
2022-10-06T07:46:46.295Z,5.88
2022-10-06T07:50:24.298Z,4.00
2022-10-06T07:53:49.284Z,3.90
2022-10-06T07:57:43.262Z,6.55
2022-10-06T08:01:07.257Z,7.95
2022-10-06T08:04:31.256Z,6.25
2022-10-06T08:07:55.241Z,3.78
2022-10-06T08:11:21.365Z,2.15
2022-10-06T08:14:47.241Z,2.40
2022-10-06T08:18:33.679Z,1.80
2022-10-06T08:21:50.827Z,0.90
2022-10-06T08:25:08.649Z,1.00
2022-10-06T08:28:34.380Z,1.30
2022-10-06T08:31:58.460Z,1.08
2022-10-06T08:35:22.286Z,0.80
2022-10-06T08:38:46.329Z,0.70
2022-10-06T08:42:11.239Z,0.50
2022-10-06T08:45:44.323Z,0.63
2022-10-06T08:52:39.286Z,0.70
2022-10-06T08:56:14.309Z,1.13
2022-10-06T08:59:39.311Z,0.70
2022-10-06T09:03:04.316Z,0.70
2022-10-06T09:06:52.297Z,0.98
2022-10-06T09:10:42.277Z,0.70
2022-10-06T09:14:22.253Z,0.70
2022-10-06T09:17:55.308Z,0.60
2022-10-06T09:24:58.305Z,0.30
2022-10-06T09:28:27.344Z,0.50
2022-10-06T09:31:59.310Z,0.70
2022-10-06T09:35:38.306Z,0.55
2022-10-06T09:39:07.331Z,0.60
2022-10-06T09:42:52.269Z,0.40
2022-10-06T09:46:36.339Z,0.70
2022-10-06T09:50:37.323Z,0.60
2022-10-06T09:54:28.340Z,0.63
2022-10-06T09:57:52.316Z,0.60
2022-10-06T10:01:24.349Z,0.70
2022-10-06T10:04:53.267Z,0.80
2022-10-06T10:08:38.335Z,0.80
2022-10-06T10:12:41.274Z,0.60
2022-10-06T10:16:12.378Z,0.50
2022-10-06T10:19:44.277Z,0.47
2022-10-06T10:23:12.318Z,0.30
2022-10-06T10:26:59.894Z,0.45
2022-10-06T10:30:19.350Z,0.50
2022-10-06T10:34:12.495Z,0.38
2022-10-06T10:37:50.297Z,0.52
2022-10-06T10:41:17.344Z,0.60
2022-10-06T10:44:52.273Z,0.70
2022-10-06T10:48:25.298Z,0.60
2022-10-06T10:55:43.369Z,0.60
2022-10-06T10:59:15.295Z,1.35
2022-10-06T11:02:38.376Z,1.40
2022-10-06T11:06:12.287Z,1.10
2022-10-06T11:09:52.320Z,0.98
2022-10-06T11:13:34.478Z,0.60
2022-10-06T11:17:01.295Z,0.60
2022-10-06T11:21:01.351Z,1.40
2022-10-06T11:24:46.367Z,1.55
2022-10-06T11:28:21.428Z,3.10
2022-10-06T11:32:04.409Z,4.18
2022-10-06T11:35:38.338Z,2.75
2022-10-06T11:39:09.336Z,7.78
2022-10-06T11:42:50.335Z,13.13
2022-10-06T11:46:31.051Z,15.38
2022-10-06T11:50:07.330Z,13.00
2022-10-06T11:53:53.319Z,9.50
2022-10-06T11:57:17.324Z,7.30
2022-10-06T12:00:41.297Z,6.10
2022-10-06T12:04:24.842Z,5.35
2022-10-06T12:08:11.347Z,4.55
2022-10-06T12:11:55.402Z,4.43
2022-10-06T12:16:58.220Z,5.57
2022-10-06T12:19:26.326Z,13.10
2022-10-06T12:22:55.353Z,1.30
2022-10-06T12:26:44.411Z,1.30
2022-10-06T12:30:11.927Z,2.08
2022-10-06T12:33:46.420Z,4.00
2022-10-06T12:37:44.347Z,3.28
2022-10-06T12:41:09.332Z,3.65
2022-10-06T12:44:45.303Z,3.40
2022-10-06T12:48:10.400Z,4.78
2022-10-06T12:51:51.359Z,2.30
2022-10-06T12:55:43.399Z,3.30
2022-10-06T12:59:09.407Z,2.65
2022-10-06T13:02:35.471Z,3.10
2022-10-06T13:06:08.313Z,2.92
2022-10-06T13:12:58.323Z,4.00
2022-10-06T13:16:24.393Z,2.80
2022-10-06T13:19:48.372Z,3.08
2022-10-06T13:23:18.391Z,2.83
2022-10-06T13:26:45.320Z,2.97
2022-10-06T13:30:38.348Z,3.03
2022-10-06T13:34:13.374Z,2.90
2022-10-06T13:37:37.391Z,2.70
2022-10-06T13:41:37.329Z,3.03
2022-10-06T13:45:22.371Z,0.90
2022-10-06T13:48:46.341Z,2.25
2022-10-06T13:52:12.923Z,3.70
2022-10-06T13:55:40.363Z,2.20
2022-10-06T13:59:04.431Z,2.35
2022-10-06T14:02:36.428Z,1.80
2022-10-06T14:06:00.370Z,3.30
2022-10-06T14:09:26.329Z,3.05
2022-10-06T14:12:51.376Z,2.55
2022-10-06T14:16:23.464Z,2.00
2022-10-06T14:19:53.403Z,3.60
2022-10-06T14:23:17.423Z,2.33
2022-10-06T14:26:47.365Z,8.00
2022-10-06T14:30:12.523Z,7.68
2022-10-06T14:33:38.411Z,8.02
2022-10-06T14:37:05.393Z,8.80
2022-10-06T14:40:30.369Z,10.40
2022-10-06T14:43:55.352Z,30.00
2022-10-06T14:47:19.394Z,31.20
2022-10-06T14:50:43.427Z,14.32
2022-10-06T14:54:09.344Z,6.80
2022-10-06T14:57:33.436Z,8.15
2022-10-06T15:00:57.394Z,4.80
2022-10-06T15:04:32.416Z,4.10
2022-10-06T15:08:14.339Z,6.25
2022-10-06T15:11:40.391Z,12.55
2022-10-06T15:15:05.409Z,12.57
2022-10-06T15:18:30.392Z,12.10
2022-10-06T15:21:56.409Z,14.52
2022-10-06T15:25:39.350Z,15.05
2022-10-06T15:29:09.396Z,9.13
2022-10-06T15:32:33.382Z,6.00
2022-10-06T15:35:58.364Z,5.95
2022-10-06T15:39:25.559Z,4.53
2022-10-06T15:42:48.398Z,3.97
2022-10-06T15:46:12.446Z,4.28
2022-10-06T15:49:40.471Z,3.40
2022-10-06T15:53:05.381Z,3.75
2022-10-06T15:56:29.419Z,2.92
2022-10-06T15:59:53.419Z,2.45
2022-10-06T16:03:32.431Z,2.03
2022-10-06T16:06:58.402Z,2.20
2022-10-06T16:10:21.587Z,2.17
2022-10-06T16:13:46.383Z,3.00
2022-10-06T16:17:10.402Z,3.05
2022-10-06T16:20:34.377Z,3.17
2022-10-06T16:23:58.365Z,3.58
2022-10-06T16:27:24.446Z,3.25
2022-10-06T16:30:48.416Z,3.60
2022-10-06T16:34:12.455Z,3.30
2022-10-06T16:37:36.369Z,3.20
2022-10-06T16:41:14.425Z,2.63
2022-10-06T16:44:39.371Z,2.85
2022-10-06T16:48:03.420Z,2.75
2022-10-06T16:51:38.400Z,2.80
2022-10-06T16:55:04.408Z,3.40
2022-10-06T16:58:29.423Z,3.35
2022-10-06T17:01:53.433Z,4.03
2022-10-06T17:05:17.455Z,5.28
2022-10-06T17:08:40.449Z,6.50
2022-10-06T17:12:15.367Z,5.50
2022-10-06T17:15:38.449Z,6.25
2022-10-06T17:19:06.382Z,6.40
2022-10-06T17:22:30.472Z,5.13
2022-10-06T17:25:54.411Z,5.40
2022-10-06T17:29:26.537Z,5.38
2022-10-06T17:32:52.465Z,6.47
2022-10-06T17:36:25.454Z,5.85
2022-10-06T17:39:49.462Z,4.60
2022-10-06T17:43:07.424Z,4.35
2022-10-06T17:46:33.440Z,6.10
2022-10-06T17:49:58.412Z,6.10
2022-10-06T17:53:22.424Z,6.78
2022-10-06T17:56:48.480Z,6.88
2022-10-06T18:00:13.451Z,5.90
2022-10-06T18:03:38.457Z,8.07
2022-10-06T18:07:03.407Z,10.10
2022-10-06T18:10:45.451Z,4.63
2022-10-06T18:14:11.421Z,8.52
2022-10-06T18:17:36.449Z,12.23
2022-10-06T18:21:00.432Z,9.55
2022-10-06T18:24:35.468Z,3.25
2022-10-06T18:28:00.515Z,2.60
2022-10-06T18:31:24.530Z,2.03
2022-10-06T18:38:36.484Z,1.13
2022-10-06T18:42:00.432Z,1.38
2022-10-06T18:45:43.458Z,1.98
2022-10-06T18:49:08.390Z,1.60
2022-10-06T18:52:32.486Z,1.55
2022-10-06T18:55:57.393Z,1.30
2022-10-06T18:59:24.474Z,1.92
2022-10-06T19:02:48.693Z,1.40
2022-10-06T19:06:11.478Z,1.25
2022-10-06T19:09:37.440Z,1.30
2022-10-06T19:13:01.428Z,1.20
2022-10-06T19:16:26.493Z,1.30
2022-10-06T19:20:03.444Z,1.30
2022-10-06T19:23:27.488Z,1.33
2022-10-06T19:26:52.414Z,1.02
2022-10-06T19:30:17.503Z,1.45
2022-10-06T19:33:41.454Z,1.77
2022-10-06T19:37:06.499Z,1.50
2022-10-06T19:40:24.088Z,1.48
2022-10-06T19:43:41.474Z,1.30
2022-10-06T19:47:05.451Z,1.10
2022-10-06T19:50:30.457Z,1.30
2022-10-06T19:53:59.467Z,1.10
2022-10-06T19:57:23.519Z,1.40
2022-10-06T20:00:49.395Z,1.30
2022-10-06T20:04:13.536Z,1.10
2022-10-06T20:07:38.411Z,1.60
2022-10-06T20:11:03.449Z,1.50
2022-10-06T20:14:34.464Z,1.50
2022-10-06T20:17:58.475Z,1.13
2022-10-06T20:21:27.416Z,0.80
2022-10-06T20:24:51.448Z,1.15
2022-10-06T20:28:17.485Z,0.80
2022-10-06T20:31:48.455Z,0.80
2022-10-06T20:35:12.476Z,0.90
2022-10-06T20:38:55.502Z,0.90
2022-10-06T20:42:15.169Z,0.70
2022-10-06T20:45:32.509Z,0.90
2022-10-06T20:48:58.482Z,1.02
2022-10-06T20:52:22.495Z,1.00
2022-10-06T20:55:46.445Z,0.98
2022-10-06T20:59:10.513Z,0.90
2022-10-06T21:02:35.532Z,0.80
2022-10-06T21:06:05.418Z,0.80
2022-10-06T21:09:32.462Z,1.00
2022-10-06T21:12:56.420Z,1.00
2022-10-06T21:16:20.539Z,1.02
2022-10-06T21:19:45.449Z,1.10
2022-10-06T21:23:10.462Z,1.20
2022-10-06T21:26:36.436Z,1.10
2022-10-06T21:30:00.457Z,1.60
2022-10-06T21:33:24.451Z,1.00
2022-10-06T21:36:48.471Z,1.08
2022-10-06T21:40:12.453Z,0.98
2022-10-06T21:43:39.470Z,0.93
2022-10-06T21:47:10.494Z,0.70
2022-10-06T21:50:34.465Z,0.80
2022-10-06T21:53:58.443Z,0.80
2022-10-06T21:57:23.523Z,0.80
2022-10-06T22:00:47.480Z,1.10
2022-10-06T22:04:12.468Z,0.73
2022-10-06T22:07:36.435Z,0.90
2022-10-06T22:11:00.478Z,0.90
2022-10-06T22:14:31.445Z,1.00
2022-10-06T22:17:55.464Z,0.82
2022-10-06T22:21:28.457Z,1.08
2022-10-06T22:24:52.483Z,1.05
2022-10-06T22:28:16.473Z,0.57
2022-10-06T22:31:41.539Z,0.90
2022-10-06T22:35:06.446Z,0.70
2022-10-06T22:38:30.569Z,0.60
2022-10-06T22:41:54.446Z,0.82
2022-10-06T22:45:18.502Z,0.80
2022-10-06T22:48:43.453Z,0.80
2022-10-06T22:52:07.514Z,0.80
2022-10-06T22:55:31.471Z,0.90
2022-10-06T22:58:55.516Z,1.00
2022-10-06T23:02:20.451Z,0.93
2022-10-06T23:05:44.510Z,0.63
2022-10-06T23:09:08.462Z,0.70
2022-10-06T23:12:32.514Z,0.90
2022-10-06T23:15:56.509Z,1.05
2022-10-06T23:19:21.520Z,0.90
2022-10-06T23:22:45.478Z,0.77
2022-10-06T23:26:09.508Z,0.77
2022-10-06T23:29:33.484Z,0.60
2022-10-06T23:32:56.503Z,0.60
2022-10-06T23:36:23.660Z,0.65
2022-10-06T23:39:46.501Z,0.60
2022-10-06T23:43:10.545Z,0.70
2022-10-06T23:46:34.604Z,1.10
2022-10-06T23:49:58.481Z,0.90
2022-10-06T23:53:22.534Z,0.70
2022-10-06T23:56:46.540Z,0.70
